Time;durP1;ratioP1;P1;durP2;ratioP2;P2;SDS_P1;SDS_P2;PMS_P1;PMS_P2;Temp;Humidity;BMP_temperature;BMP_pressure;BME280_temperature;BME280_humidity;BME280_pressure;Samples;Min_cycle;Max_cycle;Signal;HPM_P1;HPM_P2
2023/07/18 00:00:29;;;;;;;6.72;1.85;;;12.60;99.90;;;;;;5039013;28;20048;-58
2023/07/18 00:02:56;;;;;;;4.32;1.90;;;12.60;99.90;;;;;;5045878;28;20053;-57
2023/07/18 00:05:24;;;;;;;5.15;1.73;;;12.60;99.90;;;;;;5046810;28;20056;-56
2023/07/18 00:07:52;;;;;;;5.85;1.80;;;12.50;99.90;;;;;;5046192;28;20048;-56
2023/07/18 00:10:20;;;;;;;6.38;1.92;;;12.50;99.90;;;;;;5042530;28;20055;-57
2023/07/18 00:12:48;;;;;;;10.20;2.20;;;12.40;99.90;;;;;;5040484;28;20049;-58
2023/07/18 00:15:16;;;;;;;6.53;2.15;;;12.30;99.90;;;;;;5045108;28;20813;-56
2023/07/18 00:17:44;;;;;;;4.00;1.95;;;12.30;99.90;;;;;;5043737;28;20397;-56
2023/07/18 00:20:14;;;;;;;5.07;1.95;;;12.30;99.90;;;;;;5044503;28;20045;-56
2023/07/18 00:22:42;;;;;;;8.95;2.47;;;12.20;99.90;;;;;;5043814;28;20052;-57
2023/07/18 00:25:13;;;;;;;4.10;2.03;;;12.20;99.90;;;;;;5040394;28;20400;-56
2023/07/18 00:27:41;;;;;;;4.72;1.90;;;12.20;99.90;;;;;;5036367;28;20055;-56
2023/07/18 00:30:13;;;;;;;9.88;1.92;;;12.10;99.90;;;;;;5039197;28;20143;-55
2023/07/18 00:32:45;;;;;;;6.07;2.47;;;12.10;99.90;;;;;;5042534;28;20056;-55
2023/07/18 00:35:14;;;;;;;9.50;2.08;;;12.00;99.90;;;;;;5040455;28;20044;-55
2023/07/18 00:37:43;;;;;;;5.88;2.40;;;12.00;99.90;;;;;;5043439;28;20051;-55
2023/07/18 00:40:14;;;;;;;5.10;2.00;;;12.00;99.90;;;;;;5042565;28;20127;-56
2023/07/18 00:42:50;;;;;;;8.05;2.20;;;12.00;99.90;;;;;;5038500;28;20134;-54
2023/07/18 00:45:18;;;;;;;4.10;2.00;;;11.90;99.90;;;;;;5042809;28;20052;-55
2023/07/18 00:47:48;;;;;;;6.32;2.28;;;11.90;99.90;;;;;;5041295;28;20059;-55
2023/07/18 00:50:18;;;;;;;3.35;1.98;;;11.90;99.90;;;;;;5047180;28;20048;-55
2023/07/18 00:52:52;;;;;;;6.28;2.20;;;11.90;99.90;;;;;;5044458;28;20057;-56
2023/07/18 00:55:20;;;;;;;3.40;2.00;;;11.80;99.90;;;;;;5045318;28;20045;-55
2023/07/18 00:57:49;;;;;;;4.00;2.00;;;11.80;99.90;;;;;;5041081;28;20044;-55
2023/07/18 01:00:22;;;;;;;5.75;2.10;;;11.80;99.90;;;;;;5045196;28;20045;-56
2023/07/18 01:02:51;;;;;;;7.35;2.25;;;11.80;99.90;;;;;;5044104;28;20041;-55
2023/07/18 01:05:20;;;;;;;6.90;1.95;;;11.80;99.90;;;;;;5039554;28;20049;-54
2023/07/18 01:07:48;;;;;;;4.95;2.10;;;11.80;99.90;;;;;;5042013;28;20379;-55
2023/07/18 01:10:23;;;;;;;9.90;2.65;;;11.70;99.90;;;;;;5041056;28;20268;-55
2023/07/18 01:13:01;;;;;;;6.03;1.77;;;11.70;99.90;;;;;;5035640;28;20049;-56
2023/07/18 01:15:33;;;;;;;4.97;2.67;;;11.70;99.90;;;;;;5043592;28;20052;-55
2023/07/18 01:18:03;;;;;;;3.90;2.08;;;11.70;99.90;;;;;;5039588;28;20045;-55
2023/07/18 01:20:33;;;;;;;10.00;2.40;;;11.70;99.90;;;;;;5036734;28;20060;-55
2023/07/18 01:23:03;;;;;;;8.05;2.15;;;11.70;99.90;;;;;;5044823;28;20041;-54
2023/07/18 01:25:34;;;;;;;5.40;2.65;;;11.70;99.90;;;;;;5044036;28;20047;-55
2023/07/18 01:28:03;;;;;;;;;;;11.70;99.90;;;;;;5048352;28;20499;-55
2023/07/18 01:30:30;;;;;;;3.90;1.80;;;11.70;99.90;;;;;;5045639;28;19921;-54
2023/07/18 01:32:58;;;;;;;8.68;2.38;;;11.70;99.90;;;;;;5048603;28;20048;-55
2023/07/18 01:35:27;;;;;;;4.50;1.80;;;11.70;99.90;;;;;;5046114;28;20045;-56
2023/07/18 01:37:56;;;;;;;3.97;1.90;;;11.70;99.90;;;;;;5054077;28;20078;-54
2023/07/18 01:40:24;;;;;;;7.32;2.53;;;11.70;99.90;;;;;;5049845;28;20047;-54
2023/07/18 01:42:53;;;;;;;3.22;2.05;;;11.80;99.90;;;;;;5045925;28;20045;-54
2023/07/18 01:45:23;;;;;;;6.70;2.22;;;11.70;99.90;;;;;;5048707;28;20045;-54
2023/07/18 01:47:52;;;;;;;7.55;2.30;;;11.70;99.90;;;;;;5023901;28;20049;-54
2023/07/18 01:50:20;;;;;;;5.63;2.25;;;11.70;99.90;;;;;;5052491;28;20040;-55
2023/07/18 01:52:48;;;;;;;8.15;2.20;;;11.70;99.90;;;;;;5049492;28;20041;-54
2023/07/18 01:55:17;;;;;;;5.93;2.45;;;11.70;99.90;;;;;;5050446;28;20045;-55
2023/07/18 01:57:47;;;;;;;7.43;2.00;;;11.60;99.90;;;;;;5048555;28;20049;-54
2023/07/18 02:00:21;;;;;;;;;;;11.60;99.90;;;;;;5050137;28;20044;-54
2023/07/18 02:02:52;;;;;;;6.05;2.45;;;11.60;99.90;;;;;;5049688;28;19920;-55
2023/07/18 02:05:33;;;;;;;8.40;2.35;;;11.60;99.90;;;;;;5066180;28;20040;-55
2023/07/18 02:08:01;;;;;;;5.85;2.70;;;11.50;99.90;;;;;;5041144;28;20067;-54
2023/07/18 02:10:29;;;;;;;7.55;1.90;;;11.50;99.90;;;;;;5048542;28;20056;-55
2023/07/18 02:13:01;;;;;;;6.85;2.10;;;11.50;99.90;;;;;;5049552;28;20052;-56
2023/07/18 02:15:30;;;;;;;6.10;2.03;;;11.50;99.90;;;;;;5047613;28;20041;-55
2023/07/18 02:17:58;;;;;;;6.65;2.67;;;11.50;99.90;;;;;;5049526;28;20047;-56
2023/07/18 02:20:26;;;;;;;7.55;2.40;;;11.50;99.90;;;;;;5047738;28;20034;-59
2023/07/18 02:22:53;;;;;;;7.15;2.65;;;11.50;99.90;;;;;;5041912;28;20060;-58
2023/07/18 02:25:21;;;;;;;7.22;2.85;;;11.50;99.90;;;;;;5048085;28;20048;-57
2023/07/18 02:27:50;;;;;;;6.80;2.08;;;11.40;99.90;;;;;;5048753;28;20485;-57
2023/07/18 02:30:18;;;;;;;6.35;2.35;;;11.40;99.90;;;;;;5046169;28;20045;-55
2023/07/18 02:32:49;;;;;;;5.72;2.17;;;11.40;99.90;;;;;;5051307;28;20052;-55
2023/07/18 02:35:17;;;;;;;7.70;2.90;;;11.40;99.90;;;;;;5042409;28;20063;-54
2023/07/18 02:37:46;;;;;;;7.65;2.63;;;11.40;99.90;;;;;;5048554;28;20056;-55
2023/07/18 02:40:17;;;;;;;6.55;2.58;;;11.40;99.90;;;;;;5043670;28;20053;-54
2023/07/18 02:42:45;;;;;;;8.68;2.33;;;11.40;99.90;;;;;;5045249;28;20053;-54
2023/07/18 02:45:13;;;;;;;4.57;2.10;;;11.40;99.90;;;;;;5049878;28;20044;-55
2023/07/18 02:47:41;;;;;;;4.45;2.15;;;11.40;99.90;;;;;;5045411;28;20045;-55
2023/07/18 02:50:09;;;;;;;5.18;2.35;;;11.40;99.90;;;;;;5041334;28;20045;-55
2023/07/18 02:52:38;;;;;;;8.57;2.50;;;11.50;99.90;;;;;;5045405;28;20657;-55
2023/07/18 02:55:06;;;;;;;11.02;2.63;;;11.50;99.90;;;;;;5045845;28;20041;-55
2023/07/18 02:57:35;;;;;;;8.90;2.20;;;11.50;99.90;;;;;;5044207;28;20045;-55
2023/07/18 03:00:06;;;;;;;15.57;3.28;;;11.60;99.90;;;;;;5045048;28;20049;-54
2023/07/18 03:02:34;;;;;;;8.65;2.72;;;11.60;99.90;;;;;;5049320;28;20044;-56
2023/07/18 03:05:02;;;;;;;7.82;2.80;;;11.60;99.90;;;;;;5045382;28;20049;-55
2023/07/18 03:07:30;;;;;;;8.43;2.35;;;11.60;99.90;;;;;;5052243;28;20408;-56
2023/07/18 03:09:57;;;;;;;11.35;2.25;;;11.60;99.90;;;;;;5050139;28;20041;-55
2023/07/18 03:12:25;;;;;;;5.93;1.85;;;11.70;99.90;;;;;;5043002;28;20049;-55
2023/07/18 03:14:53;;;;;;;5.13;2.50;;;11.70;99.90;;;;;;5040050;28;20053;-55
2023/07/18 03:17:20;;;;;;;5.53;2.35;;;11.70;99.90;;;;;;5044570;28;20040;-56
2023/07/18 03:19:48;;;;;;;9.63;2.45;;;11.70;99.90;;;;;;5043236;28;20045;-55
2023/07/18 03:22:16;;;;;;;9.82;2.15;;;11.70;99.90;;;;;;5045135;28;20048;-56
2023/07/18 03:24:43;;;;;;;7.90;2.00;;;11.70;99.90;;;;;;5046570;28;20135;-56
2023/07/18 03:27:12;;;;;;;8.82;2.95;;;11.70;99.90;;;;;;5044171;28;20518;-57
2023/07/18 03:29:40;;;;;;;6.95;2.67;;;11.70;99.90;;;;;;5042905;28;20428;-55
2023/07/18 03:32:08;;;;;;;10.60;3.20;;;11.70;99.90;;;;;;5048850;28;20049;-56
2023/07/18 03:34:35;;;;;;;7.35;2.70;;;11.70;99.90;;;;;;5044000;28;20060;-56
2023/07/18 03:37:03;;;;;;;7.40;3.08;;;11.70;99.90;;;;;;5051442;28;20041;-55
2023/07/18 03:39:31;;;;;;;9.45;2.40;;;11.70;99.90;;;;;;5048641;28;20059;-55
2023/07/18 03:41:58;;;;;;;8.77;2.72;;;11.70;99.90;;;;;;5043682;28;20041;-55
2023/07/18 03:44:26;;;;;;;9.95;2.30;;;11.70;99.90;;;;;;5048880;28;20773;-55
2023/07/18 03:46:54;;;;;;;7.85;2.42;;;11.80;99.90;;;;;;5044753;28;20256;-55
2023/07/18 03:49:37;;;;;;;8.35;2.45;;;11.80;99.90;;;;;;5048872;28;20048;-56
2023/07/18 03:52:05;;;;;;;6.60;2.08;;;11.80;99.90;;;;;;5045440;28;20112;-56
2023/07/18 03:54:34;;;;;;;13.70;2.38;;;11.60;99.90;;;;;;5043408;28;20402;-54
2023/07/18 03:57:02;;;;;;;6.20;2.10;;;11.80;99.90;;;;;;5049824;28;20036;-55
2023/07/18 03:59:30;;;;;;;6.65;2.30;;;11.80;99.90;;;;;;5043992;28;20048;-55
2023/07/18 04:01:58;;;;;;;9.52;2.20;;;11.80;99.90;;;;;;5049291;28;20049;-55
2023/07/18 04:04:27;;;;;;;16.15;2.60;;;11.70;99.90;;;;;;5047342;28;20049;-55
2023/07/18 04:06:54;;;;;;;8.95;2.33;;;11.70;99.90;;;;;;5052228;28;20046;-55
2023/07/18 04:09:22;;;;;;;8.65;2.50;;;11.80;99.90;;;;;;5047181;28;20041;-55
2023/07/18 04:11:50;;;;;;;8.15;2.58;;;11.80;99.90;;;;;;5050186;28;20045;-55
2023/07/18 04:14:17;;;;;;;6.63;2.20;;;11.80;99.90;;;;;;5047599;28;20045;-55
2023/07/18 04:16:45;;;;;;;6.90;2.10;;;11.80;99.90;;;;;;5048636;28;20060;-54
2023/07/18 04:19:13;;;;;;;7.72;2.40;;;11.80;99.90;;;;;;5047827;28;20104;-55
2023/07/18 04:21:41;;;;;;;4.70;2.00;;;11.80;99.90;;;;;;5050756;28;20049;-54
2023/07/18 04:24:08;;;;;;;9.73;2.95;;;11.90;99.90;;;;;;5052916;28;20041;-55
2023/07/18 04:26:36;;;;;;;7.72;2.22;;;11.80;99.90;;;;;;5045252;28;20037;-55
2023/07/18 04:29:05;;;;;;;7.82;2.22;;;11.80;99.90;;;;;;5051555;28;20057;-55
2023/07/18 04:31:32;;;;;;;7.47;2.50;;;11.90;99.90;;;;;;5052423;28;20045;-55
2023/07/18 04:34:00;;;;;;;11.77;3.60;;;11.90;99.90;;;;;;5044476;28;20037;-55
2023/07/18 04:36:28;;;;;;;9.65;3.10;;;11.90;99.90;;;;;;5053620;28;20643;-55
2023/07/18 04:38:56;;;;;;;7.00;2.38;;;11.90;99.90;;;;;;5054400;28;20041;-55
2023/07/18 04:41:23;;;;;;;8.05;2.72;;;11.90;99.90;;;;;;5053635;28;20041;-55
2023/07/18 04:43:51;;;;;;;6.13;3.03;;;11.90;99.90;;;;;;5048580;28;20187;-54
2023/07/18 04:46:19;;;;;;;9.05;2.53;;;12.00;99.90;;;;;;5052681;28;20237;-55
2023/07/18 04:48:47;;;;;;;10.55;2.80;;;12.00;99.90;;;;;;5035541;28;20059;-55
2023/07/18 04:51:16;;;;;;;8.75;2.47;;;12.00;99.90;;;;;;5046561;28;20045;-56
2023/07/18 04:53:44;;;;;;;8.73;2.63;;;12.00;99.90;;;;;;5050287;28;20056;-55
2023/07/18 04:56:13;;;;;;;9.18;3.03;;;12.00;99.90;;;;;;5050539;28;20037;-55
2023/07/18 04:58:41;;;;;;;5.82;3.03;;;12.00;99.90;;;;;;5050750;28;20060;-55
2023/07/18 05:01:09;;;;;;;14.88;2.63;;;12.00;99.90;;;;;;5044976;28;20061;-55
2023/07/18 05:03:38;;;;;;;11.98;2.63;;;12.00;99.90;;;;;;5028781;28;20045;-54
2023/07/18 05:06:23;;;;;;;10.02;2.63;;;12.00;99.90;;;;;;5040478;28;20052;-55
2023/07/18 05:08:53;;;;;;;8.07;2.65;;;12.00;99.90;;;;;;5048725;28;20418;-54
2023/07/18 05:11:22;;;;;;;9.90;3.15;;;12.00;99.90;;;;;;5046970;28;20151;-55
2023/07/18 05:13:49;;;;;;;5.43;3.00;;;12.00;99.90;;;;;;5047196;28;20508;-56
2023/07/18 05:16:17;;;;;;;8.25;2.92;;;12.10;99.90;;;;;;5035053;28;20508;-54
2023/07/18 05:18:45;;;;;;;4.63;2.22;;;12.00;99.90;;;;;;5046320;28;20041;-55
2023/07/18 05:21:14;;;;;;;7.30;3.08;;;12.10;99.90;;;;;;5039834;28;20060;-55
2023/07/18 05:23:41;;;;;;;7.88;3.30;;;12.10;99.90;;;;;;5047169;28;20377;-55
2023/07/18 05:26:10;;;;;;;10.93;2.53;;;12.10;99.90;;;;;;5042842;28;20396;-55
2023/07/18 05:28:38;;;;;;;12.38;3.70;;;12.10;99.90;;;;;;5039082;28;20044;-55
2023/07/18 05:31:09;;;;;;;11.35;3.20;;;12.20;99.90;;;;;;5038217;28;20041;-54
2023/07/18 05:33:37;;;;;;;12.73;2.83;;;12.20;99.90;;;;;;5041208;28;20052;-54
2023/07/18 05:36:05;;;;;;;8.15;2.72;;;12.30;99.90;;;;;;5045519;28;20476;-54
2023/07/18 05:38:33;;;;;;;9.35;2.60;;;12.30;99.90;;;;;;5038797;28;20622;-55
2023/07/18 05:41:01;;;;;;;14.70;2.55;;;12.40;99.90;;;;;;5044862;28;20057;-54
2023/07/18 05:43:29;;;;;;;12.05;3.40;;;12.50;99.90;;;;;;5049307;28;20045;-55
2023/07/18 05:45:56;;;;;;;10.95;3.08;;;12.50;99.90;;;;;;5041005;28;20052;-56
2023/07/18 05:48:24;;;;;;;8.90;2.83;;;12.50;99.90;;;;;;5041255;28;20045;-55
2023/07/18 05:50:52;;;;;;;11.82;3.15;;;12.60;99.90;;;;;;5043462;28;20060;-55
2023/07/18 05:53:19;;;;;;;10.15;2.80;;;12.70;99.90;;;;;;5039303;28;20514;-55
2023/07/18 05:55:47;;;;;;;10.65;3.05;;;12.70;99.90;;;;;;5040122;28;20049;-54
2023/07/18 05:58:14;;;;;;;7.13;2.95;;;12.70;99.90;;;;;;5044574;28;20545;-55
2023/07/18 06:00:42;;;;;;;6.72;1.98;;;12.80;99.90;;;;;;5036227;28;20361;-56
2023/07/18 06:03:10;;;;;;;8.70;2.42;;;12.80;99.90;;;;;;5038371;28;20041;-55
2023/07/18 06:05:38;;;;;;;5.00;2.30;;;12.80;99.90;;;;;;5042478;28;20049;-54
2023/07/18 06:08:07;;;;;;;10.50;2.28;;;12.80;99.90;;;;;;5049146;28;20049;-54
2023/07/18 06:10:34;;;;;;;7.75;2.40;;;12.90;99.90;;;;;;5047492;28;20052;-54
2023/07/18 06:13:02;;;;;;;9.57;2.13;;;12.90;99.90;;;;;;5050166;28;20047;-55
2023/07/18 06:15:30;;;;;;;6.32;2.20;;;13.00;99.90;;;;;;5046197;28;20037;-54
2023/07/18 06:17:59;;;;;;;8.13;2.30;;;13.10;99.90;;;;;;5043090;28;20366;-54
2023/07/18 06:20:27;;;;;;;12.95;3.60;;;13.10;99.90;;;;;;5047359;28;20381;-55
2023/07/18 06:22:55;;;;;;;9.32;2.67;;;13.20;99.90;;;;;;5045925;28;20641;-54
2023/07/18 06:25:24;;;;;;;8.35;2.63;;;13.30;99.90;;;;;;5046554;28;20065;-54
2023/07/18 06:27:52;;;;;;;7.10;2.38;;;13.30;99.90;;;;;;5044883;28;20048;-56
2023/07/18 06:30:20;;;;;;;5.15;1.90;;;13.40;99.90;;;;;;5044514;28;20044;-57
2023/07/18 06:32:48;;;;;;;5.32;2.40;;;13.40;99.90;;;;;;5043283;28;20041;-57
2023/07/18 06:35:16;;;;;;;12.77;3.10;;;13.40;99.90;;;;;;5047165;28;20511;-57
2023/07/18 06:37:52;;;;;;;14.75;3.53;;;13.50;99.90;;;;;;5042927;28;20052;-57
2023/07/18 06:40:20;;;;;;;10.18;3.92;;;13.40;99.90;;;;;;5040418;28;20041;-58
2023/07/18 06:42:48;;;;;;;9.85;3.40;;;13.50;99.90;;;;;;5034772;28;20041;-57
2023/07/18 06:45:15;;;;;;;10.52;3.15;;;13.50;99.90;;;;;;5042870;28;20059;-58
2023/07/18 06:47:43;;;;;;;7.88;2.47;;;13.50;99.90;;;;;;5042787;28;20081;-58
2023/07/18 06:50:13;;;;;;;8.75;2.78;;;13.50;99.90;;;;;;5045930;28;20052;-57
2023/07/18 06:52:41;;;;;;;7.95;2.83;;;13.60;99.90;;;;;;5038923;28;20045;-57
2023/07/18 06:55:10;;;;;;;8.82;2.90;;;13.60;99.90;;;;;;5032553;28;20396;-57
2023/07/18 06:57:39;;;;;;;7.55;2.50;;;13.70;99.90;;;;;;5041534;28;20064;-57
2023/07/18 07:00:11;;;;;;;4.30;2.22;;;13.70;99.90;;;;;;5044012;28;20033;-56
2023/07/18 07:02:39;;;;;;;7.18;2.35;;;13.80;99.90;;;;;;5044984;28;20045;-59
2023/07/18 07:05:08;;;;;;;8.25;1.80;;;13.90;99.90;;;;;;5038393;28;20041;-58
2023/07/18 07:07:36;;;;;;;7.40;2.67;;;13.90;99.90;;;;;;5041480;28;20052;-59
2023/07/18 07:10:08;;;;;;;5.93;2.03;;;14.00;99.90;;;;;;5035375;28;20045;-56
2023/07/18 07:12:36;;;;;;;10.10;2.03;;;14.10;99.90;;;;;;5040078;28;21190;-56
2023/07/18 07:15:05;;;;;;;8.88;2.22;;;14.10;99.90;;;;;;5048123;28;20049;-56
2023/07/18 07:17:33;;;;;;;5.97;1.98;;;14.20;99.90;;;;;;5045727;28;20538;-60
2023/07/18 07:20:00;;;;;;;10.77;1.85;;;14.30;99.90;;;;;;5040896;28;20069;-58
2023/07/18 07:22:28;;;;;;;7.97;1.77;;;14.30;99.90;;;;;;5043593;28;20041;-57
2023/07/18 07:24:56;;;;;;;4.78;1.40;;;14.40;99.90;;;;;;5050330;28;20056;-57
2023/07/18 07:27:24;;;;;;;7.47;1.50;;;14.40;99.90;;;;;;5047544;28;20404;-58
2023/07/18 07:29:52;;;;;;;5.55;1.88;;;14.50;99.90;;;;;;5047948;28;20044;-57
2023/07/18 07:32:20;;;;;;;9.20;2.40;;;14.50;99.90;;;;;;5047021;28;20037;-57
2023/07/18 07:34:48;;;;;;;7.10;1.52;;;14.60;99.90;;;;;;5042938;28;20045;-58
2023/07/18 07:37:16;;;;;;;3.50;1.40;;;14.60;99.90;;;;;;5047035;28;20049;-55
2023/07/18 07:39:44;;;;;;;9.35;2.00;;;14.60;99.90;;;;;;5047556;28;20041;-56
2023/07/18 07:42:12;;;;;;;5.72;2.08;;;14.70;99.90;;;;;;5046754;28;20049;-55
2023/07/18 07:44:40;;;;;;;5.97;2.00;;;14.70;99.90;;;;;;5046863;28;20045;-55
2023/07/18 07:47:08;;;;;;;5.18;1.88;;;14.80;99.90;;;;;;5047186;28;20036;-56
2023/07/18 07:49:36;;;;;;;8.68;2.00;;;14.90;99.90;;;;;;5043693;28;20500;-57
2023/07/18 07:52:04;;;;;;;3.85;1.60;;;14.90;99.90;;;;;;5043419;28;20072;-56
2023/07/18 07:54:31;;;;;;;4.43;1.58;;;14.90;99.90;;;;;;5047916;28;20068;-55
2023/07/18 07:56:59;;;;;;;3.42;1.40;;;15.00;99.90;;;;;;5047061;28;20535;-56
2023/07/18 07:59:26;;;;;;;4.13;1.48;;;15.10;99.90;;;;;;5048557;28;20049;-57
2023/07/18 08:01:54;;;;;;;6.60;1.63;;;15.00;99.90;;;;;;5047942;28;20052;-55
2023/07/18 08:04:22;;;;;;;6.32;2.00;;;15.10;99.90;;;;;;5042596;28;20033;-55
2023/07/18 08:06:52;;;;;;;4.38;1.67;;;15.10;99.90;;;;;;5052108;28;20411;-59
2023/07/18 08:09:20;;;;;;;4.85;1.45;;;15.10;99.90;;;;;;5046070;28;20040;-57
2023/07/18 08:11:48;;;;;;;6.32;2.08;;;15.20;99.90;;;;;;5047822;28;20052;-58
2023/07/18 08:14:17;;;;;;;6.95;1.90;;;15.20;99.90;;;;;;5046768;28;20051;-58
2023/07/18 08:16:44;;;;;;;6.43;2.00;;;15.30;99.90;;;;;;5051130;28;20041;-56
2023/07/18 08:19:12;;;;;;;5.53;1.83;;;15.30;99.90;;;;;;5041804;28;20037;-58
2023/07/18 08:21:41;;;;;;;8.70;1.80;;;15.40;99.90;;;;;;5051226;28;20516;-57
2023/07/18 08:24:08;;;;;;;4.78;2.00;;;15.40;99.90;;;;;;5047389;28;20056;-56
2023/07/18 08:26:36;;;;;;;7.22;1.95;;;15.50;99.90;;;;;;5048393;28;20075;-56
2023/07/18 08:29:04;;;;;;;4.57;1.80;;;15.60;99.90;;;;;;5050557;28;20511;-56
2023/07/18 08:31:31;;;;;;;6.07;2.15;;;15.60;99.90;;;;;;5049875;28;20389;-56
2023/07/18 08:33:59;;;;;;;6.75;2.55;;;15.50;99.90;;;;;;5047968;28;20476;-56
2023/07/18 08:36:27;;;;;;;9.60;2.17;;;15.60;99.90;;;;;;5051165;28;20049;-56
2023/07/18 08:38:55;;;;;;;6.85;2.28;;;15.60;99.90;;;;;;5050741;28;20408;-56
2023/07/18 08:41:23;;;;;;;6.00;1.88;;;15.60;99.90;;;;;;5049990;28;20045;-56
2023/07/18 08:43:50;;;;;;;4.55;1.90;;;15.60;99.90;;;;;;5047599;28;20060;-55
2023/07/18 08:46:19;;;;;;;8.55;2.25;;;15.70;99.90;;;;;;5049941;28;20041;-56
2023/07/18 08:48:48;;;;;;;9.25;1.90;;;15.70;99.90;;;;;;5050896;28;20128;-56
2023/07/18 08:51:16;;;;;;;5.03;2.07;;;15.70;99.90;;;;;;5047232;28;20047;-55
2023/07/18 08:53:45;;;;;;;8.23;2.38;;;15.70;99.90;;;;;;5035972;28;20305;-57
2023/07/18 08:56:13;;;;;;;7.65;2.22;;;15.70;99.90;;;;;;5042956;28;20044;-55
2023/07/18 08:58:41;;;;;;;7.68;1.92;;;15.80;99.90;;;;;;5045716;28;20037;-54
2023/07/18 09:01:08;;;;;;;9.73;2.60;;;15.80;99.90;;;;;;5050269;28;20048;-55
2023/07/18 09:03:36;;;;;;;8.85;2.60;;;15.80;99.90;;;;;;5032719;28;20044;-55
2023/07/18 09:06:19;;;;;;;5.85;2.40;;;15.80;99.90;;;;;;5049974;28;20060;-55
2023/07/18 09:08:47;;;;;;;5.13;1.80;;;15.80;99.90;;;;;;5047522;28;20060;-55
2023/07/18 09:11:19;;;;;;;7.88;1.95;;;15.90;99.90;;;;;;5047757;28;20473;-55
2023/07/18 09:13:48;;;;;;;6.68;2.08;;;15.90;99.90;;;;;;5044069;28;20075;-55
2023/07/18 09:16:22;;;;;;;8.90;1.85;;;16.00;99.90;;;;;;5046934;28;20033;-54
2023/07/18 09:18:52;;;;;;;5.13;1.65;;;16.00;99.90;;;;;;5049262;28;20049;-55
2023/07/18 09:21:21;;;;;;;6.85;1.90;;;16.00;99.90;;;;;;5045922;28;20527;-55
2023/07/18 09:23:50;;;;;;;5.00;1.48;;;16.10;99.90;;;;;;5049268;28;20052;-55
2023/07/18 09:26:20;;;;;;;5.97;1.50;;;16.10;99.90;;;;;;5047586;28;20044;-55
2023/07/18 09:28:48;;;;;;;;;;;16.20;99.90;;;;;;5047027;28;20049;-55
2023/07/18 09:31:23;;;;;;;7.88;1.17;;;16.20;99.90;;;;;;5046505;28;19924;-56
2023/07/18 09:33:54;;;;;;;8.95;1.90;;;16.30;99.90;;;;;;5051951;28;20072;-56
2023/07/18 09:36:27;;;;;;;3.70;1.25;;;16.40;99.90;;;;;;5047710;28;20340;-55
2023/07/18 09:38:54;;;;;;;3.10;1.42;;;16.60;99.90;;;;;;5045446;28;20045;-55
2023/07/18 09:41:23;;;;;;;10.60;1.55;;;16.70;99.90;;;;;;5047440;28;20064;-56
2023/07/18 09:43:52;;;;;;;3.88;1.52;;;16.90;99.90;;;;;;5048955;28;20048;-55
2023/07/18 09:46:40;;;;;;;4.90;1.40;;;17.00;99.90;;;;;;5046362;28;20052;-55
2023/07/18 09:49:09;;;;;;;5.22;1.67;;;17.10;99.90;;;;;;5045270;28;20036;-56
2023/07/18 09:51:47;;;;;;;5.80;1.52;;;17.00;99.90;;;;;;5043236;28;20056;-56
2023/07/18 09:54:16;;;;;;;7.70;1.67;;;17.00;99.90;;;;;;5045968;28;20476;-56
2023/07/18 09:56:44;;;;;;;3.60;1.50;;;17.00;99.90;;;;;;5049216;28;20400;-58
2023/07/18 09:59:13;;;;;;;8.43;1.65;;;16.90;99.90;;;;;;5048753;28;20053;-57
2023/07/18 10:01:41;;;;;;;7.20;1.20;;;16.80;99.90;;;;;;5043332;28;20202;-57
2023/07/18 10:04:09;;;;;;;6.65;1.38;;;16.70;99.90;;;;;;5045250;28;20124;-58
2023/07/18 10:06:37;;;;;;;7.20;1.55;;;16.50;99.90;;;;;;5041208;28;20046;-57
2023/07/18 10:09:05;;;;;;;9.05;1.55;;;16.40;99.90;;;;;;5047783;28;20045;-55
2023/07/18 10:12:03;;;;;;;7.80;1.58;;;16.30;99.90;;;;;;5048205;28;20075;-55
2023/07/18 10:14:50;;;;;;;9.15;0.95;;;16.30;99.90;;;;;;5044979;28;20037;-56
2023/07/18 10:17:35;;;;;;;8.20;1.38;;;16.30;99.90;;;;;;5044996;28;20780;-55
2023/07/18 10:20:17;;;;;;;4.03;0.82;;;16.20;99.90;;;;;;5043640;28;20041;-56
2023/07/18 10:22:48;;;;;;;7.32;1.00;;;16.10;99.90;;;;;;5039027;28;20060;-56
2023/07/18 10:25:19;;;;;;;3.30;1.13;;;16.10;99.90;;;;;;5043870;28;20037;-55
2023/07/18 10:27:48;;;;;;;8.75;1.35;;;16.10;99.90;;;;;;5042573;28;20055;-57
2023/07/18 10:30:17;;;;;;;4.28;1.05;;;16.20;99.90;;;;;;5044353;28;20056;-57
2023/07/18 10:32:54;;;;;;;5.63;1.40;;;16.20;99.90;;;;;;5038659;28;20052;-58
2023/07/18 10:35:24;;;;;;;5.88;1.20;;;16.30;99.90;;;;;;5042250;28;20068;-55
2023/07/18 10:37:54;;;;;;;5.45;1.77;;;16.30;99.90;;;;;;5047660;28;20049;-57
2023/07/18 10:40:36;;;;;;;6.55;1.80;;;16.40;99.90;;;;;;5045206;28;20041;-57
2023/07/18 10:43:09;;;;;;;6.53;1.70;;;16.40;99.90;;;;;;5045992;28;20579;-56
2023/07/18 10:45:41;;;;;;;5.03;1.33;;;16.40;99.90;;;;;;5048573;28;20033;-57
2023/07/18 10:48:19;;;;;;;3.30;1.42;;;16.40;99.90;;;;;;5044474;28;20661;-59
2023/07/18 10:50:48;;;;;;;8.32;2.15;;;16.40;99.90;;;;;;5042364;28;20068;-56
2023/07/18 10:53:18;;;;;;;7.63;1.27;;;16.40;99.90;;;;;;5041525;28;20387;-56
2023/07/18 10:55:47;;;;;;;5.28;1.50;;;16.40;99.90;;;;;;5046304;28;20060;-56
2023/07/18 10:58:17;;;;;;;10.73;1.60;;;16.30;99.90;;;;;;5047346;28;20044;-56
2023/07/18 11:00:47;;;;;;;9.18;1.83;;;16.30;99.90;;;;;;5030705;28;20542;-56
2023/07/18 11:03:22;;;;;;;6.68;1.30;;;16.20;99.90;;;;;;5049491;28;20072;-59
2023/07/18 11:05:52;;;;;;;5.50;1.70;;;16.20;99.90;;;;;;5045698;28;20037;-55
2023/07/18 11:08:28;;;;;;;7.50;1.98;;;16.20;99.90;;;;;;5046994;28;20054;-55
2023/07/18 11:11:05;;;;;;;5.40;1.52;;;16.30;99.90;;;;;;5047766;28;20048;-56
2023/07/18 11:13:37;;;;;;;8.43;1.80;;;16.30;99.90;;;;;;5047773;28;20404;-56
2023/07/18 11:16:07;;;;;;;3.75;1.80;;;16.30;99.90;;;;;;5044083;28;20056;-55
2023/07/18 11:18:39;;;;;;;7.15;1.38;;;16.20;99.90;;;;;;5046359;28;20049;-55
2023/07/18 11:21:07;;;;;;;5.10;1.50;;;16.00;99.90;;;;;;5044951;28;20052;-54
2023/07/18 11:23:37;;;;;;;5.88;1.70;;;16.00;99.90;;;;;;5046249;28;20050;-55
2023/07/18 11:26:16;;;;;;;7.15;1.85;;;15.90;99.90;;;;;;5043873;28;20072;-55
2023/07/18 11:28:50;;;;;;;5.45;2.33;;;15.90;99.90;;;;;;5046935;28;20060;-55
2023/07/18 11:31:41;;;;;;;8.23;1.85;;;15.90;99.90;;;;;;5047768;28;20056;-56
2023/07/18 11:34:09;;;;;;;8.07;2.58;;;15.90;99.90;;;;;;5045687;28;20052;-55
2023/07/18 11:36:40;;;;;;;3.28;1.88;;;15.90;99.90;;;;;;5047713;28;20044;-55
2023/07/18 11:39:19;;;;;;;7.35;2.00;;;15.90;99.90;;;;;;5043769;28;20064;-58
2023/07/18 11:41:51;;;;;;;8.68;2.25;;;15.80;99.90;;;;;;5043896;28;20045;-57
2023/07/18 11:44:24;;;;;;;7.45;2.35;;;15.90;99.90;;;;;;5047049;28;20392;-55
2023/07/18 11:46:53;;;;;;;2.90;1.70;;;15.90;99.90;;;;;;5044698;28;20225;-57
2023/07/18 11:49:34;;;;;;;7.65;2.65;;;15.90;99.90;;;;;;5045955;28;20056;-59
2023/07/18 11:52:04;;;;;;;8.05;2.17;;;15.80;99.90;;;;;;5042448;28;20052;-55
2023/07/18 11:54:35;;;;;;;8.77;2.00;;;15.70;99.90;;;;;;5044294;28;20061;-55
2023/07/18 11:57:05;;;;;;;9.38;2.25;;;15.70;99.90;;;;;;5047469;28;20055;-56
2023/07/18 11:59:33;;;;;;;5.55;2.22;;;15.70;99.90;;;;;;5042580;28;20033;-55
2023/07/18 12:02:01;;;;;;;5.80;2.00;;;15.60;99.90;;;;;;5034835;28;20046;-56
2023/07/18 12:04:29;;;;;;;5.03;2.22;;;15.50;99.90;;;;;;5043640;28;20041;-56
2023/07/18 12:06:57;;;;;;;12.27;2.72;;;15.50;99.90;;;;;;5042742;28;20064;-55
2023/07/18 12:09:25;;;;;;;5.90;2.40;;;15.40;99.90;;;;;;5040876;28;20385;-56
2023/07/18 12:11:54;;;;;;;7.78;2.40;;;15.30;99.90;;;;;;5044691;28;20055;-57
2023/07/18 12:14:22;;;;;;;8.27;2.42;;;15.30;99.90;;;;;;5031482;28;20041;-56
2023/07/18 12:16:50;;;;;;;7.65;2.60;;;15.30;99.90;;;;;;5038636;28;20049;-55
2023/07/18 12:19:20;;;;;;;10.20;3.10;;;15.30;99.90;;;;;;5035942;28;20041;-55
2023/07/18 12:21:51;;;;;;;6.38;2.38;;;15.30;99.90;;;;;;5033647;28;20037;-55
2023/07/18 12:24:19;;;;;;;6.30;2.35;;;15.30;99.90;;;;;;5039623;28;20041;-55
2023/07/18 12:26:46;;;;;;;10.23;2.47;;;15.30;99.90;;;;;;5041810;28;20126;-56
2023/07/18 12:29:15;;;;;;;7.68;2.47;;;15.30;99.90;;;;;;5042567;28;20053;-58
2023/07/18 12:31:51;;;;;;;6.15;2.35;;;15.30;99.90;;;;;;5043318;28;20059;-56
2023/07/18 12:34:20;;;;;;;10.20;2.33;;;15.30;99.90;;;;;;5043685;28;20787;-55
2023/07/18 12:36:48;;;;;;;5.90;2.35;;;15.30;99.90;;;;;;5046900;28;20079;-55
2023/07/18 12:39:16;;;;;;;10.40;2.00;;;15.20;99.90;;;;;;5040152;28;20056;-55
2023/07/18 12:41:44;;;;;;;7.40;2.50;;;15.20;99.90;;;;;;5044745;28;20045;-56
2023/07/18 12:44:17;;;;;;;9.32;2.70;;;15.10;99.90;;;;;;5039088;28;20048;-56
2023/07/18 12:46:48;;;;;;;7.68;2.45;;;15.10;99.90;;;;;;5049084;28;20041;-56
2023/07/18 12:49:16;;;;;;;7.50;2.53;;;15.00;99.90;;;;;;5049581;28;20047;-55
2023/07/18 12:52:05;;;;;;;7.30;2.53;;;15.00;99.90;;;;;;5047681;28;20051;-55
2023/07/18 12:54:33;;;;;;;8.65;3.33;;;15.00;99.90;;;;;;5043739;28;20403;-56
2023/07/18 12:57:02;;;;;;;10.35;2.92;;;15.00;99.90;;;;;;5053175;28;20865;-55